createdAt,value
2022-10-23T00:02:26.227Z,16.35
2022-10-23T00:04:59.025Z,18.80
2022-10-23T00:10:19.659Z,13.27
2022-10-23T00:12:50.763Z,15.55
2022-10-23T00:15:22.945Z,13.55
2022-10-23T00:17:53.487Z,12.98
2022-10-23T00:20:26.240Z,11.88
2022-10-23T00:22:56.569Z,11.45
2022-10-23T00:25:26.620Z,15.60
2022-10-23T00:27:56.760Z,12.20
2022-10-23T00:30:26.979Z,15.82
2022-10-23T00:32:57.225Z,17.35
2022-10-23T00:35:30.170Z,16.67
2022-10-23T00:38:00.342Z,11.13
2022-10-23T00:40:30.712Z,16.65
2022-10-23T00:43:00.821Z,15.13
2022-10-23T00:45:34.055Z,15.52
2022-10-23T00:48:05.684Z,12.45
2022-10-23T00:50:38.619Z,11.77
2022-10-23T00:53:09.573Z,12.38
2022-10-23T00:55:41.357Z,16.30
2022-10-23T00:58:11.557Z,13.55
2022-10-23T01:00:49.451Z,11.60
2022-10-23T01:03:22.609Z,13.13
2022-10-23T01:06:03.671Z,12.27
2022-10-23T01:08:41.313Z,13.00
2022-10-23T01:11:18.642Z,12.77
2022-10-23T01:14:00.641Z,13.25
2022-10-23T01:16:42.196Z,10.70
2022-10-23T01:19:21.060Z,13.63
2022-10-23T01:22:03.572Z,13.77
2022-10-23T01:24:49.232Z,11.93
2022-10-23T01:27:27.957Z,14.43
2022-10-23T01:30:08.644Z,13.30
2022-10-23T01:32:48.230Z,14.57
2022-10-23T01:35:22.240Z,14.07
2022-10-23T01:37:57.834Z,13.57
2022-10-23T01:40:33.988Z,13.63
2022-10-23T01:43:13.629Z,14.77
2022-10-23T01:45:47.385Z,12.60
2022-10-23T01:48:22.436Z,15.07
2022-10-23T01:50:54.249Z,10.50
2022-10-23T01:53:25.695Z,15.75
2022-10-23T01:55:58.934Z,11.15
2022-10-23T01:58:33.821Z,14.88
2022-10-23T02:01:09.335Z,13.00
2022-10-23T02:03:42.147Z,14.80
2022-10-23T02:06:12.523Z,13.27
2022-10-23T02:08:42.775Z,12.80
2022-10-23T02:11:16.069Z,10.30
2022-10-23T02:13:58.518Z,14.57
2022-10-23T02:16:37.976Z,19.67
2022-10-23T02:19:20.509Z,16.15
2022-10-23T02:21:58.094Z,10.07
2022-10-23T02:24:32.992Z,14.35
2022-10-23T02:27:06.816Z,12.50
2022-10-23T02:29:46.275Z,13.63
2022-10-23T02:32:17.727Z,12.48
2022-10-23T02:34:48.118Z,13.05
2022-10-23T02:37:18.747Z,12.18
2022-10-23T02:39:49.392Z,14.50
2022-10-23T02:42:25.592Z,14.90
2022-10-23T02:45:10.539Z,13.52
2022-10-23T02:47:54.644Z,11.70
2022-10-23T02:50:32.432Z,14.40
2022-10-23T02:53:10.392Z,9.93
2022-10-23T02:55:54.377Z,13.35
2022-10-23T02:58:31.704Z,12.27
2022-10-23T03:01:13.682Z,14.98
2022-10-23T03:03:48.748Z,13.10
2022-10-23T03:06:19.213Z,12.30
2022-10-23T03:08:56.591Z,11.10
2022-10-23T03:11:27.158Z,16.67
2022-10-23T03:13:57.440Z,16.17
2022-10-23T03:16:33.292Z,14.93
2022-10-23T03:19:03.570Z,12.35
2022-10-23T03:21:33.820Z,11.55
2022-10-23T03:24:03.869Z,12.40
2022-10-23T03:26:34.228Z,15.18
2022-10-23T03:29:04.338Z,13.27
2022-10-23T03:31:37.030Z,14.57
2022-10-23T03:34:11.161Z,14.00
2022-10-23T03:36:41.483Z,12.40
2022-10-23T03:39:11.658Z,14.80
2022-10-23T03:41:41.811Z,13.65
2022-10-23T03:44:12.028Z,15.02
2022-10-23T03:46:44.860Z,14.27
2022-10-23T03:49:15.080Z,12.52
2022-10-23T03:51:52.035Z,12.02
2022-10-23T03:54:24.749Z,13.10
2022-10-23T03:56:57.431Z,11.10
2022-10-23T03:59:28.275Z,13.65
2022-10-23T04:02:01.052Z,13.23
2022-10-23T04:04:31.387Z,16.55
2022-10-23T04:07:01.475Z,12.15
2022-10-23T04:09:32.127Z,17.38
2022-10-23T04:12:02.293Z,14.75
2022-10-23T04:14:32.676Z,11.23
2022-10-23T04:17:05.394Z,12.90
2022-10-23T04:19:35.677Z,15.98
2022-10-23T04:22:05.781Z,12.43
2022-10-23T04:24:36.026Z,9.93
2022-10-23T04:27:06.524Z,10.20
2022-10-23T04:29:36.632Z,9.95
2022-10-23T04:32:10.477Z,11.70
2022-10-23T04:34:40.616Z,13.37
2022-10-23T04:37:10.729Z,15.85
2022-10-23T04:39:40.983Z,12.93
2022-10-23T04:42:11.208Z,12.10
2022-10-23T04:44:41.455Z,14.20
2022-10-23T04:47:14.328Z,12.70
2022-10-23T04:49:44.519Z,12.20
2022-10-23T04:52:14.789Z,13.68
2022-10-23T04:54:44.895Z,12.63
2022-10-23T04:57:14.992Z,11.93
2022-10-23T04:59:45.089Z,14.90
2022-10-23T05:02:17.861Z,12.90
2022-10-23T05:04:48.031Z,15.98
2022-10-23T05:07:18.267Z,18.42
2022-10-23T05:09:48.539Z,13.15
2022-10-23T05:12:19.317Z,11.95
2022-10-23T05:14:49.535Z,21.90
2022-10-23T05:17:26.992Z,18.55
2022-10-23T05:20:00.005Z,13.80
2022-10-23T05:22:35.876Z,14.68
2022-10-23T05:25:08.154Z,13.07
2022-10-23T05:27:38.547Z,17.70
2022-10-23T05:30:10.716Z,16.70
2022-10-23T05:32:44.218Z,12.95
2022-10-23T05:35:19.309Z,16.85
2022-10-23T05:40:21.497Z,16.02
2022-10-23T05:42:52.213Z,16.73
2022-10-23T05:45:22.562Z,15.27
2022-10-23T05:48:05.621Z,11.80
2022-10-23T05:50:41.669Z,15.82
2022-10-23T05:53:13.538Z,19.25
2022-10-23T05:55:44.024Z,17.10
2022-10-23T05:58:14.472Z,14.65
2022-10-23T06:00:44.837Z,14.70
2022-10-23T06:03:17.734Z,15.02
2022-10-23T06:05:53.276Z,12.73
2022-10-23T06:08:24.552Z,13.23
2022-10-23T06:10:55.100Z,14.15
2022-10-23T06:13:25.632Z,11.98
2022-10-23T06:15:56.025Z,14.40
2022-10-23T06:18:29.152Z,16.73
2022-10-23T06:20:59.664Z,10.68
2022-10-23T06:23:30.293Z,15.40
2022-10-23T06:26:00.687Z,12.55
2022-10-23T06:28:31.646Z,12.15
2022-10-23T06:31:01.984Z,13.15
2022-10-23T06:33:35.022Z,13.25
2022-10-23T06:36:05.841Z,11.40
2022-10-23T06:38:40.637Z,16.88
2022-10-23T06:41:16.294Z,10.23
2022-10-23T06:43:49.265Z,15.05
2022-10-23T06:46:20.336Z,11.95
2022-10-23T06:48:53.937Z,13.95
2022-10-23T06:51:25.227Z,12.95
2022-10-23T06:53:55.431Z,12.55
2022-10-23T06:56:29.313Z,12.88
2022-10-23T06:58:59.787Z,13.35
2022-10-23T07:01:30.412Z,13.20
2022-10-23T07:04:03.507Z,17.58
2022-10-23T07:06:33.811Z,15.82
2022-10-23T07:09:04.226Z,16.10
2022-10-23T07:11:34.687Z,14.23
2022-10-23T07:14:05.009Z,15.30
2022-10-23T07:16:35.639Z,17.58
2022-10-23T07:19:08.618Z,15.35
2022-10-23T07:21:39.622Z,15.15
2022-10-23T07:24:10.418Z,19.20
2022-10-23T07:26:41.705Z,21.55
2022-10-23T07:29:12.374Z,19.75
2022-10-23T07:31:43.165Z,21.00
2022-10-23T07:34:16.627Z,19.90
2022-10-23T07:36:46.924Z,20.48
2022-10-23T07:39:17.200Z,20.90
2022-10-23T07:41:47.638Z,16.33
2022-10-23T07:44:18.382Z,16.73
2022-10-23T07:46:48.726Z,15.70
2022-10-23T07:49:22.620Z,16.85
2022-10-23T07:51:54.141Z,14.52
2022-10-23T07:54:24.382Z,16.02
2022-10-23T07:56:54.756Z,21.42
2022-10-23T07:59:25.126Z,18.13
2022-10-23T08:01:56.914Z,20.30
2022-10-23T08:04:30.079Z,22.33
2022-10-23T08:07:01.256Z,16.45
2022-10-23T08:09:31.559Z,22.75
2022-10-23T08:12:01.954Z,19.58
2022-10-23T08:14:32.313Z,16.08
2022-10-23T08:17:03.384Z,21.15
2022-10-23T08:19:36.715Z,21.90
2022-10-23T08:22:07.405Z,16.42
2022-10-23T08:24:40.656Z,17.08
2022-10-23T08:27:10.882Z,20.80
2022-10-23T08:29:41.256Z,23.88
2022-10-23T08:32:11.420Z,20.35
2022-10-23T08:34:44.321Z,19.35
2022-10-23T08:37:14.591Z,16.90
2022-10-23T08:39:46.556Z,17.42
2022-10-23T08:42:26.208Z,25.02
2022-10-23T08:45:07.198Z,21.60
2022-10-23T08:47:43.857Z,18.55
2022-10-23T08:53:06.612Z,17.83
2022-10-23T08:55:40.509Z,19.33
2022-10-23T08:58:17.866Z,20.77
2022-10-23T09:00:51.163Z,22.08
2022-10-23T09:03:21.730Z,19.58
2022-10-23T09:06:10.401Z,18.38
2022-10-23T09:08:53.402Z,14.77
2022-10-23T09:11:31.101Z,14.65
2022-10-23T09:14:32.039Z,16.70
2022-10-23T09:17:16.288Z,9.93
2022-10-23T09:19:48.962Z,11.38
2022-10-23T09:22:22.034Z,16.50
2022-10-23T09:24:53.916Z,20.73
2022-10-23T09:27:24.884Z,16.77
2022-10-23T09:29:59.370Z,16.80
2022-10-23T09:32:38.757Z,10.35
2022-10-23T09:35:23.607Z,14.27
2022-10-23T09:37:56.866Z,16.83
2022-10-23T09:40:35.575Z,11.10
2022-10-23T09:43:23.454Z,15.63
2022-10-23T09:46:03.141Z,9.88
2022-10-23T09:48:33.960Z,14.95
2022-10-23T09:51:07.776Z,11.60
2022-10-23T09:53:43.581Z,9.57
2022-10-23T09:56:29.849Z,10.13
2022-10-23T09:59:03.501Z,10.27
2022-10-23T10:01:36.771Z,7.85
2022-10-23T10:04:07.491Z,12.38
2022-10-23T10:06:37.968Z,10.90
2022-10-23T10:09:16.734Z,13.23
2022-10-23T10:11:54.327Z,9.48
2022-10-23T10:14:47.508Z,11.07
2022-10-23T10:17:29.262Z,6.03
2022-10-23T10:20:18.618Z,7.47
2022-10-23T10:22:56.493Z,9.07
2022-10-23T10:25:38.237Z,11.32
2022-10-23T10:28:30.171Z,9.80
2022-10-23T10:31:12.623Z,11.15
2022-10-23T10:33:59.840Z,7.35
2022-10-23T10:36:45.829Z,7.90
2022-10-23T10:39:31.225Z,8.27
2022-10-23T10:42:26.889Z,6.82
2022-10-23T10:45:32.247Z,7.50
2022-10-23T10:48:33.175Z,5.93
2022-10-23T10:51:09.170Z,5.72
2022-10-23T10:53:53.534Z,6.32
2022-10-23T10:56:29.033Z,5.55
2022-10-23T10:59:07.010Z,5.53
2022-10-23T11:01:43.198Z,5.57
2022-10-23T11:04:24.783Z,6.43
2022-10-23T11:06:56.806Z,5.45
2022-10-23T11:09:31.651Z,6.22
2022-10-23T11:12:02.400Z,3.67
2022-10-23T11:14:37.684Z,10.57
2022-10-23T11:17:14.202Z,4.57
2022-10-23T11:19:49.673Z,5.50
2022-10-23T11:22:29.401Z,5.72
2022-10-23T11:25:55.798Z,5.05
2022-10-23T11:31:28.903Z,4.60
2022-10-23T11:34:42.515Z,11.27
2022-10-23T11:37:12.957Z,5.88
2022-10-23T11:39:43.364Z,7.90
2022-10-23T11:42:30.448Z,5.55
2022-10-23T11:45:00.795Z,10.82
2022-10-23T11:47:39.963Z,5.22
2022-10-23T11:50:34.578Z,6.10
2022-10-23T11:53:27.914Z,6.60
2022-10-23T11:56:06.898Z,6.18
2022-10-23T11:58:50.145Z,9.23
2022-10-23T12:01:40.193Z,9.65
2022-10-23T12:04:24.962Z,5.78
2022-10-23T12:07:00.058Z,6.68
2022-10-23T12:09:36.291Z,5.22
2022-10-23T12:12:34.185Z,8.60
2022-10-23T12:15:25.043Z,7.22
2022-10-23T12:17:58.790Z,6.15
2022-10-23T12:20:49.663Z,7.80
2022-10-23T12:23:47.270Z,4.70
2022-10-23T12:26:50.872Z,5.95
2022-10-23T12:29:41.143Z,5.93
2022-10-23T12:32:30.729Z,5.10
2022-10-23T12:35:21.529Z,5.20
2022-10-23T12:38:12.465Z,5.80
2022-10-23T12:40:43.002Z,5.88
2022-10-23T12:43:29.469Z,7.30
2022-10-23T12:46:05.560Z,4.10
2022-10-23T12:48:37.423Z,4.85
2022-10-23T12:51:07.796Z,4.20
2022-10-23T12:53:40.724Z,7.65
2022-10-23T12:56:15.499Z,5.60
2022-10-23T12:58:53.015Z,8.02
2022-10-23T13:01:29.871Z,8.25
2022-10-23T13:04:05.002Z,4.25
2022-10-23T13:06:35.620Z,6.65
2022-10-23T13:09:21.532Z,6.03
2022-10-23T13:11:52.853Z,5.20
2022-10-23T13:14:42.029Z,5.05
2022-10-23T13:17:15.261Z,4.97
2022-10-23T13:19:45.789Z,4.53
2022-10-23T13:22:23.039Z,4.60
2022-10-23T13:24:56.001Z,3.60
2022-10-23T13:27:35.760Z,9.95
2022-10-23T13:30:08.523Z,7.30
2022-10-23T13:32:41.503Z,8.35
2022-10-23T13:35:25.716Z,4.45
2022-10-23T13:37:56.116Z,6.10
2022-10-23T13:40:31.057Z,12.23
2022-10-23T13:43:01.350Z,5.90
2022-10-23T13:45:31.885Z,5.68
2022-10-23T13:48:02.463Z,5.07
2022-10-23T13:50:32.784Z,6.47
2022-10-23T13:53:05.485Z,6.70
2022-10-23T13:55:39.348Z,7.30
2022-10-23T13:58:09.746Z,7.90
2022-10-23T14:00:43.380Z,6.35
2022-10-23T14:03:13.843Z,5.37
2022-10-23T14:05:44.122Z,7.28
2022-10-23T14:08:14.851Z,5.20
2022-10-23T14:10:47.959Z,8.13
2022-10-23T14:13:19.176Z,6.50
2022-10-23T14:15:57.071Z,7.60
2022-10-23T14:18:27.493Z,8.45
2022-10-23T14:20:58.029Z,5.28
2022-10-23T14:23:28.583Z,7.43
2022-10-23T14:26:05.839Z,7.47
2022-10-23T14:28:37.142Z,9.18
2022-10-23T14:31:08.562Z,7.75
2022-10-23T14:33:39.143Z,7.50
2022-10-23T14:36:10.784Z,11.18
2022-10-23T14:38:41.345Z,6.40
2022-10-23T14:41:19.637Z,7.63
2022-10-23T14:43:50.121Z,7.10
2022-10-23T14:46:23.616Z,7.90
2022-10-23T14:48:59.884Z,6.97
2022-10-23T14:51:33.560Z,6.78
2022-10-23T14:54:06.211Z,8.88
2022-10-23T14:56:41.795Z,9.77
2022-10-23T14:59:13.536Z,11.02
2022-10-23T15:01:48.455Z,11.95
2022-10-23T15:04:19.449Z,12.13
2022-10-23T15:06:49.874Z,14.30
2022-10-23T15:09:21.004Z,17.02
2022-10-23T15:11:53.993Z,12.32
2022-10-23T15:14:24.404Z,13.38
2022-10-23T15:16:54.856Z,8.73
2022-10-23T15:19:25.358Z,9.00
2022-10-23T15:21:55.651Z,9.70
2022-10-23T15:24:26.839Z,8.00
2022-10-23T15:27:00.391Z,9.60
2022-10-23T15:29:30.770Z,9.00
2022-10-23T15:32:02.156Z,12.93
2022-10-23T15:34:33.188Z,10.35
2022-10-23T15:37:03.562Z,12.07
2022-10-23T15:39:35.827Z,11.02
2022-10-23T15:42:10.240Z,9.88
2022-10-23T15:44:42.846Z,9.40
2022-10-23T15:47:13.453Z,11.15
2022-10-23T15:49:43.798Z,9.57
2022-10-23T15:52:14.311Z,7.65
2022-10-23T15:54:44.608Z,8.00
2022-10-23T15:57:17.712Z,8.00
2022-10-23T15:59:48.214Z,5.75
2022-10-23T16:02:18.467Z,7.65
2022-10-23T16:04:48.887Z,8.18
2022-10-23T16:07:20.282Z,7.72
2022-10-23T16:09:50.654Z,5.18
2022-10-23T16:12:23.620Z,8.02
2022-10-23T16:14:54.596Z,7.05
2022-10-23T16:17:25.207Z,7.88
2022-10-23T16:19:55.476Z,11.75
2022-10-23T16:22:25.767Z,9.65
2022-10-23T16:24:56.304Z,15.27
2022-10-23T16:27:29.474Z,9.10
2022-10-23T16:29:59.695Z,9.20
2022-10-23T16:32:30.157Z,10.98
2022-10-23T16:35:00.593Z,9.13
2022-10-23T16:37:31.011Z,9.15
2022-10-23T16:40:02.053Z,9.57
2022-10-23T16:42:35.781Z,7.35
2022-10-23T16:45:06.487Z,7.70
2022-10-23T16:47:37.577Z,9.60
2022-10-23T16:50:09.076Z,8.55
2022-10-23T16:52:39.300Z,8.05
2022-10-23T16:55:10.953Z,7.57
2022-10-23T16:57:43.996Z,9.65
2022-10-23T17:00:15.762Z,9.23
2022-10-23T17:02:46.552Z,8.63
2022-10-23T17:05:17.236Z,10.10
2022-10-23T17:07:47.776Z,12.23
2022-10-23T17:10:18.256Z,7.85
2022-10-23T17:12:51.256Z,8.43
2022-10-23T17:15:24.109Z,9.25
2022-10-23T17:17:54.695Z,7.70
2022-10-23T17:20:25.483Z,10.52
2022-10-23T17:22:56.104Z,12.23
2022-10-23T17:25:26.344Z,12.15
2022-10-23T17:27:59.273Z,8.93
2022-10-23T17:30:29.691Z,14.25
2022-10-23T17:33:01.859Z,11.48
2022-10-23T17:35:32.557Z,8.07
2022-10-23T17:38:03.189Z,14.65
2022-10-23T17:40:34.158Z,15.75
2022-10-23T17:43:07.372Z,12.65
2022-10-23T17:45:40.529Z,12.55
2022-10-23T17:48:11.390Z,10.23
2022-10-23T17:50:41.971Z,9.10
2022-10-23T17:53:12.766Z,11.07
2022-10-23T17:55:44.768Z,8.13
2022-10-23T17:58:17.660Z,11.63
2022-10-23T18:00:47.938Z,14.18
2022-10-23T18:03:19.863Z,16.70
2022-10-23T18:05:50.407Z,10.38
2022-10-23T18:08:20.587Z,9.55
2022-10-23T18:10:50.782Z,9.95
2022-10-23T18:13:23.431Z,9.50
2022-10-23T18:15:54.317Z,12.90
2022-10-23T18:18:24.561Z,11.80
2022-10-23T18:20:54.968Z,9.10
2022-10-23T18:23:25.110Z,14.77
2022-10-23T18:25:55.285Z,13.77
2022-10-23T18:28:28.865Z,12.18
2022-10-23T18:30:59.281Z,13.50
2022-10-23T18:33:29.532Z,9.10
2022-10-23T18:35:59.675Z,9.50
2022-10-23T18:38:30.221Z,13.88
2022-10-23T18:41:00.632Z,10.15
2022-10-23T18:43:43.177Z,10.93
2022-10-23T18:46:14.736Z,8.32
2022-10-23T18:48:45.836Z,8.57
2022-10-23T18:51:20.081Z,7.93
2022-10-23T18:53:51.382Z,8.95
2022-10-23T18:56:24.808Z,11.10
2022-10-23T18:58:59.571Z,10.23
2022-10-23T19:01:32.190Z,8.82
2022-10-23T19:04:04.585Z,11.85
2022-10-23T19:06:36.146Z,8.30
2022-10-23T19:09:09.141Z,8.00
2022-10-23T19:11:40.598Z,8.55
2022-10-23T19:14:13.293Z,8.50
2022-10-23T19:16:49.176Z,9.40
2022-10-23T19:19:25.322Z,10.68
2022-10-23T19:21:56.613Z,10.75
2022-10-23T19:24:31.620Z,10.70
2022-10-23T19:27:04.287Z,15.93
2022-10-23T19:29:39.832Z,11.98
2022-10-23T19:32:10.896Z,8.82
2022-10-23T19:34:41.327Z,7.95
2022-10-23T19:37:11.649Z,10.07
2022-10-23T19:39:41.852Z,14.85
2022-10-23T19:42:12.361Z,9.90
2022-10-23T19:44:45.175Z,10.15
2022-10-23T19:47:15.383Z,8.68
2022-10-23T19:49:45.623Z,12.00
2022-10-23T19:52:15.803Z,9.05
2022-10-23T19:54:46.320Z,9.20
2022-10-23T19:57:19.202Z,9.75
2022-10-23T19:59:55.640Z,10.30
2022-10-23T20:02:25.987Z,10.03
2022-10-23T20:04:56.803Z,11.73
2022-10-23T20:07:26.909Z,12.40
2022-10-23T20:09:57.446Z,10.00
2022-10-23T20:12:27.595Z,11.93
2022-10-23T20:15:00.587Z,13.32
2022-10-23T20:17:30.774Z,12.52
2022-10-23T20:20:00.960Z,11.07
2022-10-23T20:22:31.208Z,11.50
2022-10-23T20:25:01.301Z,12.50
2022-10-23T20:27:31.588Z,10.20
2022-10-23T20:30:04.557Z,12.75
2022-10-23T20:32:36.596Z,11.93
2022-10-23T20:35:07.984Z,11.38
2022-10-23T20:37:38.525Z,11.20
2022-10-23T20:40:10.670Z,12.85
2022-10-23T20:42:41.222Z,11.70
2022-10-23T20:45:14.873Z,10.60
2022-10-23T20:47:46.815Z,11.43
2022-10-23T20:50:19.398Z,13.50
2022-10-23T20:52:49.615Z,9.25
2022-10-23T20:55:20.436Z,10.43
2022-10-23T20:57:50.547Z,9.82
2022-10-23T21:00:23.869Z,10.93
2022-10-23T21:02:54.468Z,9.18
2022-10-23T21:05:25.595Z,9.98
2022-10-23T21:07:55.858Z,12.05
2022-10-23T21:10:26.269Z,11.55
2022-10-23T21:12:56.436Z,13.20
2022-10-23T21:15:30.934Z,12.98
2022-10-23T21:18:07.989Z,10.75
2022-10-23T21:20:49.546Z,11.82
2022-10-23T21:23:19.882Z,11.55
2022-10-23T21:25:50.379Z,10.20
2022-10-23T21:28:20.447Z,10.95
2022-10-23T21:30:53.137Z,12.77
2022-10-23T21:33:23.842Z,13.82
2022-10-23T21:35:58.329Z,12.38
2022-10-23T21:38:35.085Z,13.32
2022-10-23T21:41:09.286Z,10.57
2022-10-23T21:43:39.421Z,12.13
2022-10-23T21:46:15.741Z,14.10
2022-10-23T21:48:46.259Z,9.93
2022-10-23T21:51:25.092Z,11.20
2022-10-23T21:53:56.901Z,11.27
2022-10-23T21:56:32.864Z,11.77
2022-10-23T22:01:39.490Z,12.18
2022-10-23T22:04:09.997Z,11.18
2022-10-23T22:06:42.392Z,10.23
2022-10-23T22:09:15.660Z,13.43
2022-10-23T22:11:46.146Z,9.82
2022-10-23T22:14:16.359Z,17.77
2022-10-23T22:16:49.676Z,10.85
2022-10-23T22:19:22.999Z,10.93
2022-10-23T22:21:54.047Z,16.33
2022-10-23T22:24:24.689Z,12.23
2022-10-23T22:26:58.610Z,12.02
2022-10-23T22:29:31.070Z,11.65
2022-10-23T22:32:04.015Z,13.18
2022-10-23T22:34:51.904Z,13.98
2022-10-23T22:37:23.525Z,10.55
2022-10-23T22:39:54.886Z,10.32
2022-10-23T22:42:25.165Z,13.38
2022-10-23T22:44:55.387Z,11.27
2022-10-23T22:47:28.191Z,11.93
2022-10-23T22:49:58.478Z,11.85
2022-10-23T22:52:28.655Z,13.80
2022-10-23T22:54:59.215Z,14.23
2022-10-23T22:57:29.409Z,13.75
2022-10-23T22:59:59.689Z,12.43
2022-10-23T23:02:32.408Z,12.38
2022-10-23T23:05:02.763Z,11.38
2022-10-23T23:07:33.050Z,13.48
2022-10-23T23:10:03.165Z,12.65
2022-10-23T23:12:33.472Z,14.95
2022-10-23T23:15:03.611Z,14.32
2022-10-23T23:17:36.473Z,11.68
2022-10-23T23:20:07.602Z,13.43
2022-10-23T23:22:37.854Z,9.70
2022-10-23T23:25:09.397Z,16.88
2022-10-23T23:27:40.378Z,15.65
2022-10-23T23:30:13.111Z,11.88
2022-10-23T23:32:46.103Z,13.52
2022-10-23T23:35:16.995Z,9.90
2022-10-23T23:37:47.507Z,13.48
2022-10-23T23:40:17.810Z,12.90
2022-10-23T23:42:47.928Z,13.02
2022-10-23T23:45:18.363Z,11.55
2022-10-23T23:47:51.188Z,11.35
2022-10-23T23:50:22.047Z,13.32
2022-10-23T23:52:52.392Z,10.73
2022-10-23T23:55:22.740Z,12.77
2022-10-23T23:57:52.931Z,12.02
